createdAt,value
2018-09-06T00:00:41.607Z,8.53
2018-09-06T00:03:17.553Z,7.07
2018-09-06T00:05:53.568Z,9.50
2018-09-06T00:08:29.317Z,8.27
2018-09-06T00:11:05.223Z,8.43
2018-09-06T00:13:41.127Z,11.33
2018-09-06T00:16:16.946Z,7.53
2018-09-06T00:18:52.907Z,8.97
2018-09-06T00:21:28.924Z,6.53
2018-09-06T00:24:04.774Z,5.83
2018-09-06T00:26:40.734Z,6.43
2018-09-06T00:29:16.844Z,7.47
2018-09-06T00:31:52.758Z,6.57
2018-09-06T00:34:28.595Z,9.10
2018-09-06T00:37:04.463Z,8.10
2018-09-06T00:39:40.315Z,8.47
2018-09-06T00:42:16.267Z,9.00
2018-09-06T00:44:52.373Z,9.17
2018-09-06T00:47:28.547Z,6.67
2018-09-06T00:50:05.911Z,8.33
2018-09-06T00:52:41.977Z,7.50
2018-09-06T00:55:18.377Z,8.13
2018-09-06T00:57:54.327Z,8.97
2018-09-06T01:00:30.320Z,9.60
2018-09-06T01:03:06.272Z,10.27
2018-09-06T01:05:42.308Z,8.03
2018-09-06T01:08:18.163Z,7.97
2018-09-06T01:10:54.189Z,7.17
2018-09-06T01:13:30.257Z,7.23
2018-09-06T01:16:07.484Z,7.77
2018-09-06T01:18:43.540Z,7.50
2018-09-06T01:21:19.457Z,10.43
2018-09-06T01:23:55.273Z,8.17
2018-09-06T01:26:31.481Z,8.60
2018-09-06T01:29:07.531Z,7.80
2018-09-06T01:31:43.472Z,6.80
2018-09-06T01:34:19.439Z,7.60
2018-09-06T01:36:55.218Z,10.67
2018-09-06T01:39:31.122Z,8.53
2018-09-06T01:42:07.851Z,7.93
2018-09-06T01:44:43.745Z,6.63
2018-09-06T01:47:19.750Z,10.20
2018-09-06T01:49:55.718Z,7.23
2018-09-06T01:52:31.695Z,6.43
2018-09-06T01:55:07.568Z,9.73
2018-09-06T01:57:43.561Z,9.17
2018-09-06T02:00:19.515Z,7.90
2018-09-06T02:02:55.492Z,9.30
2018-09-06T02:05:35.703Z,8.30
2018-09-06T02:08:11.719Z,8.47
2018-09-06T02:10:47.593Z,8.97
2018-09-06T02:13:23.643Z,8.23
2018-09-06T02:15:59.538Z,9.30
2018-09-06T02:18:35.473Z,9.47
2018-09-06T02:21:11.402Z,8.37
2018-09-06T02:23:47.364Z,12.07
2018-09-06T02:26:23.214Z,8.30
2018-09-06T02:28:59.200Z,7.53
2018-09-06T02:31:35.241Z,8.93
2018-09-06T02:34:11.194Z,9.60
2018-09-06T02:36:47.081Z,9.77
2018-09-06T02:39:23.043Z,6.87
2018-09-06T02:41:58.965Z,6.63
2018-09-06T02:44:34.777Z,6.93
2018-09-06T02:47:10.676Z,8.70
2018-09-06T02:49:51.833Z,7.87
2018-09-06T02:52:27.908Z,8.70
2018-09-06T02:55:03.805Z,7.20
2018-09-06T02:57:39.720Z,8.80
2018-09-06T03:00:15.828Z,8.80
2018-09-06T03:02:52.420Z,8.63
2018-09-06T03:05:28.482Z,8.87
2018-09-06T03:08:04.580Z,10.37
2018-09-06T03:10:42.797Z,10.83
2018-09-06T03:13:18.813Z,11.10
2018-09-06T03:15:54.695Z,10.43
2018-09-06T03:18:30.624Z,10.47
2018-09-06T03:21:06.911Z,11.70
2018-09-06T03:23:42.844Z,11.97
2018-09-06T03:26:20.139Z,9.63
2018-09-06T03:28:56.151Z,9.63
2018-09-06T03:31:32.043Z,11.67
2018-09-06T03:34:07.947Z,12.13
2018-09-06T03:36:43.680Z,10.40
2018-09-06T03:39:19.511Z,11.03
2018-09-06T03:41:55.341Z,12.67
2018-09-06T03:44:31.257Z,12.47
2018-09-06T03:47:07.315Z,12.13
2018-09-06T03:49:43.124Z,10.97
2018-09-06T03:52:18.916Z,14.10
2018-09-06T03:54:54.901Z,14.90
2018-09-06T03:57:30.928Z,11.67
2018-09-06T04:00:06.965Z,14.07
2018-09-06T04:02:42.891Z,11.73
2018-09-06T04:05:18.762Z,11.87
2018-09-06T04:07:54.672Z,12.60
2018-09-06T04:10:30.552Z,12.23
2018-09-06T04:13:06.666Z,12.37
2018-09-06T04:15:42.469Z,12.50
2018-09-06T04:18:18.477Z,11.47
2018-09-06T04:20:54.323Z,12.20
2018-09-06T04:23:30.214Z,12.23
2018-09-06T04:26:06.369Z,13.93
2018-09-06T04:28:42.247Z,10.60
2018-09-06T04:31:18.292Z,13.30
2018-09-06T04:33:54.175Z,14.10
2018-09-06T04:36:30.068Z,13.27
2018-09-06T04:39:10.447Z,14.33
2018-09-06T04:41:46.088Z,14.33
2018-09-06T04:44:22.130Z,15.17
2018-09-06T04:46:58.103Z,15.60
2018-09-06T04:49:34.057Z,14.57
2018-09-06T04:52:09.975Z,16.20
2018-09-06T04:54:46.033Z,16.17
2018-09-06T04:57:21.905Z,14.50
2018-09-06T04:59:58.033Z,17.67
2018-09-06T05:02:33.882Z,18.23
2018-09-06T05:05:09.989Z,15.00
2018-09-06T05:07:45.946Z,18.20
2018-09-06T05:10:21.728Z,16.20
2018-09-06T05:12:57.535Z,17.70
2018-09-06T05:15:33.560Z,16.60
2018-09-06T05:18:09.756Z,18.33
2018-09-06T05:20:45.669Z,19.80
2018-09-06T05:23:21.528Z,19.80
2018-09-06T05:25:57.543Z,19.43
2018-09-06T05:28:33.565Z,17.97
2018-09-06T05:31:09.649Z,18.57
2018-09-06T05:33:45.544Z,23.87
2018-09-06T05:36:21.611Z,22.07
2018-09-06T05:38:57.433Z,21.30
2018-09-06T05:41:33.387Z,21.50
2018-09-06T05:44:10.023Z,22.47
2018-09-06T05:46:46.100Z,20.33
2018-09-06T05:49:22.053Z,22.10
2018-09-06T05:51:58.310Z,20.97
2018-09-06T05:54:34.251Z,24.63
2018-09-06T05:57:10.131Z,18.67
2018-09-06T05:59:46.159Z,23.20
2018-09-06T06:02:22.073Z,22.70
2018-09-06T06:04:57.912Z,26.70
2018-09-06T06:07:50.699Z,26.03
2018-09-06T06:10:26.888Z,24.70
2018-09-06T06:13:03.061Z,20.83
2018-09-06T06:15:39.021Z,20.57
2018-09-06T06:18:15.095Z,19.93
2018-09-06T06:20:51.255Z,25.70
2018-09-06T06:23:27.275Z,21.40
2018-09-06T06:26:03.236Z,22.97
2018-09-06T06:28:39.101Z,24.23
2018-09-06T06:31:14.941Z,23.83
2018-09-06T06:33:50.864Z,25.73
2018-09-06T06:36:26.863Z,23.33
2018-09-06T06:39:03.024Z,26.03
2018-09-06T06:41:38.953Z,24.40
2018-09-06T06:44:14.967Z,25.03
2018-09-06T06:46:50.828Z,24.20
2018-09-06T06:49:26.839Z,23.90
2018-09-06T06:52:02.933Z,24.80
2018-09-06T06:54:38.849Z,26.13
2018-09-06T06:57:14.856Z,24.77
2018-09-06T06:59:52.526Z,21.17
2018-09-06T07:02:29.219Z,23.13
2018-09-06T07:05:05.178Z,22.77
2018-09-06T07:07:41.138Z,22.87
2018-09-06T07:10:17.386Z,19.77
2018-09-06T07:12:53.438Z,22.10
2018-09-06T07:15:29.451Z,17.80
2018-09-06T07:18:05.493Z,20.77
2018-09-06T07:20:41.506Z,22.53
2018-09-06T07:23:17.385Z,17.27
2018-09-06T07:25:53.311Z,18.33
2018-09-06T07:28:29.201Z,21.67
2018-09-06T07:31:05.190Z,20.27
2018-09-06T07:33:41.011Z,19.83
2018-09-06T07:36:16.857Z,17.83
2018-09-06T07:38:52.906Z,21.63
2018-09-06T07:41:29.010Z,23.83
2018-09-06T07:44:05.205Z,22.73
2018-09-06T07:46:41.065Z,23.57
2018-09-06T07:49:17.182Z,26.33
2018-09-06T07:51:53.227Z,25.53
2018-09-06T07:54:29.145Z,27.03
2018-09-06T07:57:05.006Z,29.47
2018-09-06T07:59:40.962Z,26.07
2018-09-06T08:02:17.061Z,27.20
2018-09-06T08:04:53.024Z,32.47
2018-09-06T08:07:28.896Z,28.70
2018-09-06T08:10:05.161Z,30.83
2018-09-06T08:12:41.200Z,30.57
2018-09-06T08:15:17.196Z,34.00
2018-09-06T08:17:53.084Z,35.53
2018-09-06T08:20:28.997Z,36.00
2018-09-06T08:23:05.072Z,35.57
2018-09-06T08:25:41.180Z,35.93
2018-09-06T08:28:17.178Z,34.40
2018-09-06T08:30:53.447Z,37.43
2018-09-06T08:33:29.336Z,34.87
2018-09-06T08:36:06.358Z,37.47
2018-09-06T08:38:42.159Z,34.43
2018-09-06T08:41:18.036Z,33.20
2018-09-06T08:43:53.999Z,34.97
2018-09-06T08:46:29.911Z,34.07
2018-09-06T08:49:05.805Z,35.60
2018-09-06T08:51:41.737Z,33.87
2018-09-06T08:54:17.787Z,34.87
2018-09-06T08:56:53.824Z,34.90
2018-09-06T08:59:29.988Z,39.20
2018-09-06T09:02:09.965Z,34.67
2018-09-06T09:04:45.991Z,36.53
2018-09-06T09:07:21.869Z,33.27
2018-09-06T09:09:57.861Z,36.33
2018-09-06T09:12:33.929Z,35.30
2018-09-06T09:15:09.852Z,34.00
2018-09-06T09:17:45.845Z,33.47
2018-09-06T09:20:21.852Z,32.87
2018-09-06T09:22:57.889Z,35.47
2018-09-06T09:25:33.874Z,36.10
2018-09-06T09:28:09.957Z,37.80
2018-09-06T09:30:46.053Z,30.83
2018-09-06T09:33:22.095Z,37.87
2018-09-06T09:35:58.173Z,35.27
2018-09-06T09:38:34.480Z,31.27
2018-09-06T09:41:10.575Z,30.23
2018-09-06T09:43:46.654Z,31.70
2018-09-06T09:48:57.579Z,30.87
2018-09-06T09:51:33.622Z,26.10
2018-09-06T09:54:09.633Z,24.83
2018-09-06T09:56:45.887Z,25.00
2018-09-06T09:59:21.992Z,27.23
2018-09-06T10:02:03.150Z,29.97
2018-09-06T10:04:54.722Z,29.03
2018-09-06T10:07:35.680Z,30.73
2018-09-06T10:10:11.797Z,27.60
2018-09-06T10:12:47.892Z,27.70
2018-09-06T10:15:24.101Z,25.67
2018-09-06T10:18:00.051Z,24.50
2018-09-06T10:20:36.029Z,23.00
2018-09-06T10:23:12.078Z,23.20
2018-09-06T10:25:48.185Z,23.47
2018-09-06T10:28:24.167Z,22.20
2018-09-06T10:31:00.157Z,23.63
2018-09-06T10:33:36.337Z,25.87
2018-09-06T10:36:12.476Z,21.50
2018-09-06T10:38:48.419Z,23.53
2018-09-06T10:41:24.435Z,22.13
2018-09-06T10:44:00.312Z,21.10
2018-09-06T10:46:36.330Z,18.23
2018-09-06T10:49:12.289Z,14.43
2018-09-06T10:51:48.419Z,15.60
2018-09-06T10:54:24.411Z,15.57
2018-09-06T10:57:00.491Z,16.83
2018-09-06T10:59:36.553Z,16.53
2018-09-06T11:02:12.634Z,18.30
2018-09-06T11:04:48.812Z,19.00
2018-09-06T11:07:24.839Z,17.87
2018-09-06T11:10:00.889Z,17.80
2018-09-06T11:12:36.663Z,19.43
2018-09-06T11:15:12.697Z,21.67
2018-09-06T11:17:48.688Z,22.07
2018-09-06T11:20:24.657Z,19.73
2018-09-06T11:23:00.619Z,20.97
2018-09-06T11:25:36.684Z,21.03
2018-09-06T11:28:12.629Z,22.90
2018-09-06T11:30:48.740Z,19.83
2018-09-06T11:33:24.874Z,21.87
2018-09-06T11:36:00.870Z,22.30
2018-09-06T11:38:36.903Z,24.00
2018-09-06T11:41:12.782Z,22.77
2018-09-06T11:43:48.572Z,23.27
2018-09-06T11:46:24.411Z,24.40
2018-09-06T11:49:00.433Z,24.37
2018-09-06T11:51:36.472Z,27.67
2018-09-06T11:54:12.444Z,25.20
2018-09-06T11:56:48.290Z,27.43
2018-09-06T11:59:24.376Z,28.17
2018-09-06T12:02:00.501Z,26.40
2018-09-06T12:04:36.574Z,27.00
2018-09-06T12:07:12.612Z,28.00
2018-09-06T12:09:48.848Z,28.20
2018-09-06T12:12:24.751Z,26.33
2018-09-06T12:15:03.285Z,29.03
2018-09-06T12:17:39.336Z,27.67
2018-09-06T12:20:17.538Z,30.00
2018-09-06T12:22:53.651Z,27.57
2018-09-06T12:25:29.503Z,26.60
2018-09-06T12:28:05.580Z,30.63
2018-09-06T12:30:41.579Z,27.63
2018-09-06T12:33:18.035Z,27.50
2018-09-06T12:35:54.001Z,24.17
2018-09-06T12:38:30.255Z,24.80
2018-09-06T12:41:06.456Z,25.13
2018-09-06T12:43:42.548Z,23.97
2018-09-06T12:46:18.676Z,19.27
2018-09-06T12:48:54.553Z,21.93
2018-09-06T12:51:30.843Z,19.20
2018-09-06T12:54:07.078Z,17.93
2018-09-06T12:56:43.178Z,15.53
2018-09-06T12:59:19.741Z,15.60
2018-09-06T13:01:55.717Z,20.27
2018-09-06T13:04:31.747Z,19.80
2018-09-06T13:07:07.547Z,16.50
2018-09-06T13:09:43.621Z,16.87
2018-09-06T13:12:19.490Z,16.50
2018-09-06T13:14:55.473Z,14.17
2018-09-06T13:17:31.351Z,15.63
2018-09-06T13:20:07.833Z,15.67
2018-09-06T13:22:43.945Z,16.37
2018-09-06T13:25:19.985Z,17.27
2018-09-06T13:27:55.880Z,19.67
2018-09-06T13:30:31.873Z,19.23
2018-09-06T13:33:08.280Z,17.00
2018-09-06T13:35:44.395Z,17.20
2018-09-06T13:38:20.365Z,17.10
2018-09-06T13:40:56.287Z,17.93
2018-09-06T13:43:32.395Z,16.53
2018-09-06T13:46:08.404Z,15.93
2018-09-06T13:48:44.182Z,18.53
2018-09-06T13:51:20.229Z,17.93
2018-09-06T13:53:55.981Z,16.60
2018-09-06T13:56:31.989Z,19.93
2018-09-06T13:59:08.018Z,18.87
2018-09-06T14:01:44.193Z,18.40
2018-09-06T14:04:20.243Z,21.03
2018-09-06T14:06:56.036Z,17.13
2018-09-06T14:09:32.258Z,23.53
2018-09-06T14:12:08.267Z,20.07
2018-09-06T14:14:44.311Z,18.93
2018-09-06T14:17:20.299Z,16.40
2018-09-06T14:19:56.293Z,22.37
2018-09-06T14:22:32.246Z,23.23
2018-09-06T14:25:08.268Z,20.20
2018-09-06T14:27:44.367Z,20.67
2018-09-06T14:30:20.489Z,19.70
2018-09-06T14:32:56.543Z,20.87
2018-09-06T14:35:32.479Z,21.77
2018-09-06T14:38:08.560Z,20.03
2018-09-06T14:40:44.468Z,24.20
2018-09-06T14:43:20.517Z,21.30
2018-09-06T14:45:56.414Z,24.03
2018-09-06T14:48:32.404Z,22.70
2018-09-06T14:51:08.445Z,22.70
2018-09-06T14:53:44.348Z,28.83
2018-09-06T14:56:20.374Z,25.63
2018-09-06T14:58:56.455Z,27.40
2018-09-06T15:01:32.507Z,22.90
2018-09-06T15:04:08.697Z,28.97
2018-09-06T15:06:44.413Z,30.53
2018-09-06T15:09:20.417Z,25.60
2018-09-06T15:11:56.487Z,26.37
2018-09-06T15:14:32.387Z,30.93
2018-09-06T15:17:08.521Z,33.33
2018-09-06T15:19:44.558Z,30.90
2018-09-06T15:22:21.047Z,33.23
2018-09-06T15:24:57.115Z,33.33
2018-09-06T15:27:36.606Z,30.13
2018-09-06T15:30:12.790Z,35.03
2018-09-06T15:32:48.726Z,31.60
2018-09-06T15:35:25.106Z,31.53
2018-09-06T15:38:01.538Z,34.97
2018-09-06T15:40:37.438Z,40.67
2018-09-06T15:43:13.463Z,41.80
2018-09-06T15:45:49.604Z,43.13
2018-09-06T15:48:25.512Z,41.17
2018-09-06T15:51:01.689Z,45.90
2018-09-06T15:53:37.776Z,43.63
2018-09-06T15:56:14.579Z,47.50
2018-09-06T15:58:50.667Z,45.80
2018-09-06T16:01:27.509Z,49.57
2018-09-06T16:04:03.541Z,49.87
2018-09-06T16:06:39.476Z,49.17
2018-09-06T16:09:15.416Z,49.87
2018-09-06T16:11:52.477Z,49.70
2018-09-06T16:14:29.557Z,49.87
2018-09-06T16:17:05.649Z,52.87
2018-09-06T16:19:41.552Z,51.63
2018-09-06T16:22:17.675Z,50.43
2018-09-06T16:24:53.805Z,52.53
2018-09-06T16:27:29.845Z,47.33
2018-09-06T16:30:06.637Z,47.23
2018-09-06T16:32:42.729Z,47.00
2018-09-06T16:35:18.777Z,47.40
2018-09-06T16:37:54.801Z,45.43
2018-09-06T16:40:30.877Z,44.20
2018-09-06T16:43:06.973Z,45.10
2018-09-06T16:45:43.017Z,45.73
2018-09-06T16:48:20.004Z,43.40
2018-09-06T16:50:56.142Z,46.73
2018-09-06T16:53:34.566Z,41.03
2018-09-06T16:56:10.582Z,41.93
2018-09-06T16:58:46.806Z,42.80
2018-09-06T17:01:34.695Z,44.00
2018-09-06T17:04:15.560Z,41.77
2018-09-06T17:06:51.482Z,40.63
2018-09-06T17:09:27.510Z,39.13
2018-09-06T17:12:03.544Z,35.37
2018-09-06T17:14:39.614Z,33.73
2018-09-06T17:17:15.557Z,31.20
2018-09-06T17:19:51.596Z,26.87
2018-09-06T17:22:27.923Z,25.37
2018-09-06T17:25:04.165Z,21.17
2018-09-06T17:27:40.204Z,17.90
2018-09-06T17:30:16.167Z,16.90
2018-09-06T17:32:52.239Z,17.03
2018-09-06T17:35:28.264Z,16.73
2018-09-06T17:38:04.372Z,17.20
2018-09-06T17:40:40.237Z,17.33
2018-09-06T17:43:16.215Z,17.53
2018-09-06T17:45:52.627Z,16.93
2018-09-06T17:48:28.805Z,17.13
2018-09-06T17:51:04.651Z,17.77
2018-09-06T17:53:40.624Z,17.80
2018-09-06T17:56:16.595Z,17.60
2018-09-06T17:58:53.323Z,19.67
2018-09-06T18:01:36.663Z,19.20
2018-09-06T18:04:12.744Z,18.37
2018-09-06T18:06:48.892Z,18.87
2018-09-06T18:09:25.835Z,21.53
2018-09-06T18:12:01.903Z,20.47
2018-09-06T18:14:37.902Z,22.07
2018-09-06T18:17:13.872Z,21.13
2018-09-06T18:19:50.240Z,21.93
2018-09-06T18:22:26.376Z,23.23
2018-09-06T18:25:02.451Z,20.43
2018-09-06T18:27:38.559Z,25.00
2018-09-06T18:30:14.621Z,25.33
2018-09-06T18:32:50.777Z,29.40
2018-09-06T18:35:26.854Z,29.07
2018-09-06T18:38:02.727Z,31.63
2018-09-06T18:40:38.717Z,30.07
2018-09-06T18:43:14.656Z,32.33
2018-09-06T18:45:50.943Z,34.80
2018-09-06T18:48:26.809Z,37.13
2018-09-06T18:51:02.914Z,32.70
2018-09-06T18:53:39.081Z,35.37
2018-09-06T18:56:15.259Z,35.03
2018-09-06T18:58:51.463Z,24.90
2018-09-06T19:01:27.624Z,26.13
2018-09-06T19:04:03.673Z,25.57
2018-09-06T19:06:39.598Z,24.63
2018-09-06T19:09:15.489Z,23.97
2018-09-06T19:11:51.635Z,22.90
2018-09-06T19:14:27.780Z,16.90
2018-09-06T19:17:03.933Z,17.10
2018-09-06T19:19:40.027Z,17.37
2018-09-06T19:22:16.009Z,18.40
2018-09-06T19:24:52.128Z,17.47
2018-09-06T19:27:28.166Z,15.97
2018-09-06T19:30:04.304Z,15.53
2018-09-06T19:32:40.613Z,14.07
2018-09-06T19:35:16.921Z,14.10
2018-09-06T19:37:53.197Z,15.43
2018-09-06T19:40:29.425Z,13.10
2018-09-06T19:43:05.575Z,12.80
2018-09-06T19:45:41.682Z,11.57
2018-09-06T19:48:17.842Z,12.30
2018-09-06T19:50:53.672Z,11.10
2018-09-06T19:53:29.738Z,12.40
2018-09-06T19:56:05.821Z,11.30
2018-09-06T19:58:42.144Z,12.60
2018-09-06T20:01:18.543Z,12.07
2018-09-06T20:03:54.700Z,10.97
2018-09-06T20:06:30.962Z,11.63
2018-09-06T20:09:08.272Z,11.07
2018-09-06T20:11:44.215Z,10.70
2018-09-06T20:14:20.273Z,9.77
2018-09-06T20:16:56.374Z,12.90
2018-09-06T20:19:32.595Z,10.03
2018-09-06T20:22:10.238Z,12.67
2018-09-06T20:24:46.075Z,11.03
2018-09-06T20:27:21.889Z,10.70
2018-09-06T20:29:57.960Z,9.43
2018-09-06T20:32:33.904Z,10.07
2018-09-06T20:35:09.905Z,10.53
2018-09-06T20:37:45.840Z,9.30
2018-09-06T20:40:21.812Z,8.97
2018-09-06T20:42:59.562Z,9.40
2018-09-06T20:45:35.483Z,10.40
2018-09-06T20:48:11.412Z,9.93
2018-09-06T20:50:47.461Z,11.47
2018-09-06T20:53:23.711Z,11.93
2018-09-06T20:55:59.662Z,12.67
2018-09-06T20:58:35.682Z,12.07
2018-09-06T21:01:11.745Z,10.87
2018-09-06T21:03:47.664Z,10.87
2018-09-06T21:06:23.807Z,10.93
2018-09-06T21:08:59.892Z,12.17
2018-09-06T21:11:35.791Z,16.67
2018-09-06T21:14:11.814Z,12.50
2018-09-06T21:16:47.681Z,12.07
2018-09-06T21:19:23.667Z,13.67
2018-09-06T21:21:59.560Z,12.80
2018-09-06T21:24:35.652Z,13.37
2018-09-06T21:27:11.610Z,14.93
2018-09-06T21:29:47.518Z,14.77
2018-09-06T21:32:23.488Z,14.40
2018-09-06T21:34:59.432Z,15.77
2018-09-06T21:37:36.153Z,15.97
2018-09-06T21:40:12.166Z,15.73
2018-09-06T21:42:48.741Z,15.93
2018-09-06T21:45:24.794Z,14.33
2018-09-06T21:48:00.793Z,14.80
2018-09-06T21:50:36.789Z,16.77
2018-09-06T21:53:12.772Z,16.50
2018-09-06T21:55:48.937Z,18.40
2018-09-06T21:58:25.070Z,19.20
2018-09-06T22:01:01.481Z,19.83
2018-09-06T22:03:42.399Z,19.90
2018-09-06T22:06:18.550Z,19.83
2018-09-06T22:08:54.484Z,19.73
2018-09-06T22:11:30.469Z,20.97
2018-09-06T22:14:06.457Z,21.87
2018-09-06T22:16:42.472Z,21.23
2018-09-06T22:19:18.438Z,19.90
2018-09-06T22:21:54.296Z,22.13
2018-09-06T22:24:30.269Z,19.47
2018-09-06T22:27:06.402Z,21.17
2018-09-06T22:29:42.291Z,21.27
2018-09-06T22:32:18.373Z,21.17
2018-09-06T22:34:54.511Z,21.77
2018-09-06T22:37:30.429Z,20.90
2018-09-06T22:40:06.758Z,22.03
2018-09-06T22:42:42.692Z,20.67
2018-09-06T22:45:18.788Z,20.77
2018-09-06T22:47:54.780Z,22.00
2018-09-06T22:50:30.674Z,20.00
2018-09-06T22:53:06.769Z,21.73
2018-09-06T22:55:42.799Z,21.17
2018-09-06T22:58:18.728Z,21.40
2018-09-06T23:00:54.746Z,21.93
2018-09-06T23:03:38.993Z,23.10
2018-09-06T23:06:14.953Z,21.23
2018-09-06T23:08:51.400Z,20.47
2018-09-06T23:11:27.260Z,20.07
2018-09-06T23:14:03.347Z,19.50
2018-09-06T23:16:39.424Z,23.77
2018-09-06T23:19:15.485Z,23.00
2018-09-06T23:21:51.683Z,24.03
2018-09-06T23:24:27.659Z,22.17
2018-09-06T23:27:03.639Z,23.37
2018-09-06T23:29:40.698Z,23.17
2018-09-06T23:32:16.564Z,23.13
2018-09-06T23:34:52.704Z,23.23
2018-09-06T23:37:28.713Z,22.93
2018-09-06T23:40:05.027Z,26.17
2018-09-06T23:42:41.224Z,20.37
2018-09-06T23:45:17.431Z,28.07
2018-09-06T23:47:53.737Z,23.63
2018-09-06T23:50:29.858Z,24.97
2018-09-06T23:53:05.956Z,28.00
2018-09-06T23:55:41.964Z,25.40
2018-09-06T23:58:18.261Z,27.43
